This is the latest recevied weather packets stored in our database for station/object KG5CK-1. If no packets are shown the sender has not sent any weather packets the latest 1 day(s).
| Time | Temp. | Humidity | Pressure | Rain* | Wind** | Luminosity | Snow |
|---|---|---|---|---|---|---|---|
| 1778084583 | 12.78° C | 94% | 1010.7 hPa | 0 mm | 0.45 m/s, 55° | - | - |
| 1778084223 | 12.22° C | 94% | 1011 hPa | 0 mm | 1.34 m/s, 60° | - | - |
| 1778084164 | 12.22° C | 94% | 1011 hPa | 0 mm | 1.34 m/s, 60° | - | - |
| 1778083983 | 12.22° C | 95% | 1010.7 hPa | 0 mm | 1.34 m/s, 62° | - | - |
| 1778083863 | 12.22° C | 95% | 1010.7 hPa | 0 mm | 1.34 m/s, 62° | - | - |
| 1778083743 | 12.22° C | 96% | 1010.4 hPa | 0 mm | 1.34 m/s, 80° | - | - |
| 1778083623 | 12.22° C | 96% | 1010.4 hPa | 0 mm | 1.34 m/s, 80° | - | - |
| 1778083563 | 12.22° C | 96% | 1010.4 hPa | 0 mm | 1.34 m/s, 80° | - | - |
| 1778083503 | 12.22° C | 96% | 1009.7 hPa | 1.02 mm | 0.89 m/s, 14° | - | - |
| 1778083383 | 12.22° C | 96% | 1009.7 hPa | 1.02 mm | 0.89 m/s, 14° | - | - |
| 1778083263 | 12.22° C | 96% | 1009.7 hPa | 1.02 mm | 0.89 m/s, 14° | - | - |
| 1778083138 | 12.22° C | 96% | 1009.6 hPa | 1.02 mm | 0.89 m/s, 59° | - | - |
| 1778083084 | 12.22° C | 96% | 1009.6 hPa | 1.02 mm | 0.89 m/s, 59° | - | - |
| 1778082845 | 11.67° C | 95% | 1009.7 hPa | 1.78 mm | 0.89 m/s, 30° | - | - |
| 1778082545 | 11.67° C | 94% | 1009.5 hPa | 4.57 mm | 0.89 m/s, 59° | - | - |
| 1778082061 | 11.67° C | 92% | 1012 hPa | 2.79 mm | 0.89 m/s, 66° | - | - |
| 1778081945 | 12.22° C | 90% | 1012.3 hPa | 0 mm | 1.79 m/s, 20° | - | - |
| 1778081643 | 12.22° C | 86% | 1012.2 hPa | 0 mm | 0.89 m/s, 342° | - | - |
| 1778081583 | 12.22° C | 86% | 1012.2 hPa | 0 mm | 0.89 m/s, 342° | - | - |
| 1778081523 | 12.22° C | 86% | 1012.2 hPa | 0 mm | 0.89 m/s, 342° | - | - |
| 1778081463 | 12.22° C | 86% | 1012.2 hPa | 0 mm | 0.89 m/s, 342° | - | - |
| 1778081283 | 12.22° C | 85% | 1011.9 hPa | 0 mm | 1.79 m/s, 349° | - | - |
| 1778081103 | 12.22° C | 85% | 1011.5 hPa | 0 mm | 0.45 m/s, 53° | - | - |
| 1778080743 | 12.22° C | 85% | 1011.2 hPa | 0 mm | 0.89 m/s, 34° | - | - |
| 1778080623 | 12.22° C | 85% | 1011.2 hPa | 0 mm | 0.89 m/s, 34° | - | - |
* Rain latest hour (hover to see other rain measurements)
** Current wind speed in m/s (hover to see current wind gust speed)